Time;durP1;ratioP1;P1;durP2;ratioP2;P2;SDS_P1;SDS_P2;PMS_P1;PMS_P2;Temp;Humidity;BMP_temperature;BMP_pressure;BME280_temperature;BME280_humidity;BME280_pressure;Samples;Min_cycle;Max_cycle;Signal;HPM_P1;HPM_P2
2022/04/04 00:01:12;;;;;;;;;;;3.10;99.90;;;;;;5090367;28;20078;-52
2022/04/04 00:03:56;;;;;;;8.40;6.70;;;3.10;99.90;;;;;;5087555;28;20057;-50
2022/04/04 00:06:40;;;;;;;8.85;7.63;;;3.10;99.80;;;;;;5081398;28;20113;-47
2022/04/04 00:09:25;;;;;;;9.20;7.57;;;3.10;99.70;;;;;;5089028;28;20317;-52
2022/04/04 00:12:10;;;;;;;9.70;7.35;;;3.20;99.50;;;;;;5090774;28;20050;-52
2022/04/04 00:14:54;;;;;;;11.70;7.90;;;3.20;99.50;;;;;;5087893;28;20031;-50
2022/04/04 00:17:37;;;;;;;10.98;7.97;;;3.10;99.40;;;;;;5085695;28;20081;-52
2022/04/04 00:20:22;;;;;;;9.27;7.93;;;3.10;99.50;;;;;;5089887;28;20416;-50
2022/04/04 00:23:12;;;;;;;8.50;7.60;;;3.10;99.60;;;;;;5091114;28;20089;-48
2022/04/04 00:25:56;;;;;;;10.48;7.45;;;3.00;99.60;;;;;;5082633;28;20051;-47
2022/04/04 00:28:40;;;;;;;8.48;7.57;;;3.00;99.70;;;;;;5085905;28;20526;-52
2022/04/04 00:31:24;;;;;;;8.57;7.70;;;3.10;99.50;;;;;;5087932;28;20043;-49
2022/04/04 00:34:08;;;;;;;9.68;8.38;;;3.10;99.30;;;;;;5088759;28;20125;-51
2022/04/04 00:36:52;;;;;;;9.32;7.95;;;3.10;99.60;;;;;;5081311;28;20526;-46
2022/04/04 00:39:36;;;;;;;10.82;7.82;;;3.00;99.50;;;;;;5083652;28;20047;-50
2022/04/04 00:42:21;;;;;;;11.93;8.50;;;3.00;99.50;;;;;;5083258;28;20067;-52
2022/04/04 00:45:05;;;;;;;9.18;7.97;;;3.00;99.60;;;;;;5080190;28;20315;-52
2022/04/04 00:47:50;;;;;;;9.23;7.63;;;2.90;99.80;;;;;;5079600;28;20067;-50
2022/04/04 00:50:34;;;;;;;9.27;7.70;;;3.00;99.90;;;;;;5086402;28;20121;-49
2022/04/04 00:53:18;;;;;;;8.82;7.88;;;3.00;99.70;;;;;;5081306;28;20097;-51
2022/04/04 00:56:02;;;;;;;9.43;8.38;;;3.00;99.60;;;;;;5076149;28;20043;-47
2022/04/04 00:58:48;;;;;;;12.25;10.02;;;3.00;99.70;;;;;;5082317;28;20024;-50
2022/04/04 01:01:34;;;;;;;9.25;8.25;;;2.90;99.80;;;;;;5081319;28;20050;-50
2022/04/04 01:04:18;;;;;;;10.07;9.00;;;2.90;99.80;;;;;;5080098;28;20588;-47
2022/04/04 01:07:03;;;;;;;9.40;8.13;;;2.80;99.90;;;;;;5082037;28;20127;-49
2022/04/04 01:09:48;;;;;;;;;;;2.80;99.90;;;;;;5083070;28;20032;-52
2022/04/04 01:12:33;;;;;;;10.23;8.57;;;2.70;99.90;;;;;;5080057;28;20053;-50
2022/04/04 01:15:17;;;;;;;11.30;9.38;;;2.80;99.90;;;;;;5079235;28;20506;-49
2022/04/04 01:18:06;;;;;;;11.65;8.73;;;2.70;99.90;;;;;;5080743;28;20051;-53
2022/04/04 01:20:51;;;;;;;10.10;9.00;;;2.70;99.90;;;;;;5079759;28;20027;-50
2022/04/04 01:23:40;;;;;;;10.18;9.18;;;2.70;99.90;;;;;;5081408;28;20133;-51
2022/04/04 01:26:24;;;;;;;10.25;9.15;;;2.70;99.90;;;;;;5079724;28;20404;-48
2022/04/04 01:29:08;;;;;;;11.25;9.93;;;2.60;99.90;;;;;;5084693;28;20449;-49
2022/04/04 01:31:54;;;;;;;12.75;9.75;;;2.60;99.90;;;;;;5080509;28;20043;-50
2022/04/04 01:34:39;;;;;;;12.70;9.55;;;2.70;99.90;;;;;;5083950;28;20051;-48
2022/04/04 01:37:23;;;;;;;10.48;9.40;;;2.50;99.90;;;;;;5090924;28;20036;-50
2022/04/04 01:40:08;;;;;;;13.40;10.23;;;2.60;99.90;;;;;;5080393;28;20043;-50
2022/04/04 01:42:55;;;;;;;10.80;9.68;;;2.50;99.90;;;;;;5103355;28;20035;-51
2022/04/04 01:48:42;;;;;;;12.30;9.80;;;2.60;99.90;;;;;;5071765;28;20082;-48
2022/04/04 01:51:27;;;;;;;12.10;10.80;;;2.60;99.90;;;;;;5080404;28;20059;-48
2022/04/04 01:54:11;;;;;;;;;;;2.60;99.90;;;;;;5092476;28;20477;-51
2022/04/04 01:56:56;;;;;;;12.60;10.68;;;2.50;99.90;;;;;;5079938;28;20386;-52
2022/04/04 01:59:40;;;;;;;13.67;11.33;;;2.50;99.80;;;;;;5088281;28;20120;-51
2022/04/04 02:02:24;;;;;;;12.45;11.15;;;2.40;99.90;;;;;;5084942;28;20047;-51
2022/04/04 02:05:08;;;;;;;13.30;11.90;;;2.40;99.90;;;;;;5075732;28;20102;-52
2022/04/04 02:07:52;;;;;;;14.45;12.15;;;2.50;99.90;;;;;;5085491;28;20050;-50
2022/04/04 02:10:37;;;;;;;13.38;11.05;;;2.60;99.50;;;;;;5088343;28;20047;-49
2022/04/04 02:13:23;;;;;;;16.55;11.98;;;2.60;99.40;;;;;;5091342;28;20047;-50
2022/04/04 02:16:08;;;;;;;13.02;11.48;;;2.60;99.30;;;;;;5091483;28;20039;-47
2022/04/04 02:18:51;;;;;;;13.73;11.05;;;2.50;99.60;;;;;;5091370;28;20510;-46
2022/04/04 02:21:36;;;;;;;13.32;11.15;;;2.50;99.40;;;;;;5071394;28;20059;-47
2022/04/04 02:24:21;;;;;;;12.18;10.88;;;2.60;99.20;;;;;;5086030;28;20101;-47
2022/04/04 02:27:05;;;;;;;12.03;10.57;;;2.60;99.20;;;;;;5075419;28;20078;-49
2022/04/04 02:29:49;;;;;;;12.88;11.48;;;2.60;99.00;;;;;;5093258;28;20054;-47
2022/04/04 02:32:33;;;;;;;16.40;11.95;;;2.60;99.10;;;;;;5082038;28;20036;-47
2022/04/04 02:35:17;;;;;;;14.82;11.95;;;2.60;99.10;;;;;;5083333;28;20043;-46
2022/04/04 02:38:02;;;;;;;11.90;10.15;;;2.50;98.90;;;;;;5094903;28;20081;-46
2022/04/04 02:40:46;;;;;;;13.52;12.13;;;2.60;98.90;;;;;;5089699;28;20553;-48
2022/04/04 02:43:31;;;;;;;14.43;12.10;;;2.50;99.10;;;;;;5075478;28;20074;-46
2022/04/04 02:46:15;;;;;;;;;;;2.40;99.10;;;;;;5090741;28;20378;-50
2022/04/04 02:49:00;;;;;;;12.43;10.85;;;2.50;98.90;;;;;;5082071;28;19918;-49
2022/04/04 02:51:44;;;;;;;12.98;11.50;;;2.50;99.00;;;;;;5075242;28;20112;-52
2022/04/04 02:54:28;;;;;;;12.27;10.97;;;2.50;98.80;;;;;;5089699;28;20032;-47
2022/04/04 02:57:14;;;;;;;13.95;11.77;;;2.50;98.90;;;;;;5108246;28;20146;-47
2022/04/04 02:59:58;;;;;;;14.43;11.93;;;2.60;98.50;;;;;;5092985;28;20038;-46
2022/04/04 03:02:42;;;;;;;13.40;11.82;;;2.50;98.70;;;;;;5080446;28;20531;-52
2022/04/04 03:05:26;;;;;;;15.05;11.57;;;2.60;98.70;;;;;;5079184;28;20610;-49
2022/04/04 03:08:10;;;;;;;12.57;11.27;;;2.60;98.40;;;;;;5092467;28;20553;-48
2022/04/04 03:10:54;;;;;;;16.33;11.68;;;2.70;98.20;;;;;;5081759;28;20035;-51
2022/04/04 03:13:39;;;;;;;16.17;12.70;;;2.70;98.10;;;;;;5094108;28;20111;-47
2022/04/04 03:16:23;;;;;;;17.20;11.70;;;2.60;98.40;;;;;;5074989;28;20274;-49
2022/04/04 03:19:07;;;;;;;13.30;12.00;;;2.70;98.10;;;;;;5073645;28;20547;-47
2022/04/04 03:21:54;;;;;;;18.15;12.07;;;2.70;98.30;;;;;;5077381;28;20523;-47
2022/04/04 03:24:38;;;;;;;16.35;12.35;;;2.70;98.00;;;;;;5073521;28;20048;-46
2022/04/04 03:27:22;;;;;;;13.38;11.98;;;2.70;97.90;;;;;;5082193;28;20062;-48
2022/04/04 03:30:10;;;;;;;13.73;12.25;;;2.60;97.80;;;;;;5093822;28;20047;-48
2022/04/04 03:32:57;;;;;;;14.57;12.40;;;2.60;97.80;;;;;;5079915;28;20605;-50
2022/04/04 03:35:41;;;;;;;14.80;13.02;;;2.50;98.00;;;;;;5072731;28;20035;-50
2022/04/04 03:38:27;;;;;;;14.88;12.73;;;2.50;98.10;;;;;;5089951;28;20097;-47
2022/04/04 03:41:11;;;;;;;15.48;13.23;;;2.50;97.90;;;;;;5093946;28;20062;-52
2022/04/04 03:43:55;;;;;;;19.08;14.20;;;2.40;98.20;;;;;;5073068;28;20040;-49
2022/04/04 03:46:39;;;;;;;16.35;12.57;;;2.40;98.20;;;;;;5073334;28;20055;-50
2022/04/04 03:49:23;;;;;;;17.87;13.83;;;2.30;98.20;;;;;;5073865;28;20036;-50
2022/04/04 03:52:07;;;;;;;15.27;13.75;;;2.40;98.10;;;;;;5092966;28;20032;-51
2022/04/04 03:54:52;;;;;;;15.40;13.02;;;2.30;98.20;;;;;;5095273;28;20399;-53
2022/04/04 03:57:38;;;;;;;17.98;13.23;;;2.40;98.10;;;;;;5114253;28;20038;-50
2022/04/04 04:00:24;;;;;;;17.13;13.75;;;2.30;98.00;;;;;;5060717;28;20239;-49
2022/04/04 04:03:09;;;;;;;15.50;13.63;;;2.40;98.10;;;;;;5085995;28;20125;-51
2022/04/04 04:06:11;;;;;;;17.95;14.07;;;2.40;97.80;;;;;;5073841;28;20035;-49
2022/04/04 04:08:55;;;;;;;14.73;12.48;;;2.50;97.50;;;;;;5072482;28;20048;-50
2022/04/04 04:11:39;;;;;;;16.85;13.75;;;2.50;97.30;;;;;;5081467;28;20035;-48
2022/04/04 04:14:24;;;;;;;16.43;14.03;;;2.50;97.40;;;;;;5092624;28;20058;-51
2022/04/04 04:17:11;;;;;;;15.23;12.80;;;2.50;97.40;;;;;;5080867;28;20538;-48
2022/04/04 04:23:01;;;;;;;15.32;13.25;;;2.50;97.10;;;;;;5089224;28;20039;-49
2022/04/04 04:25:45;;;;;;;13.52;12.13;;;2.50;96.70;;;;;;5091292;28;20043;-48
2022/04/04 04:28:30;;;;;;;17.88;12.95;;;2.50;96.70;;;;;;5091820;28;20399;-46
2022/04/04 04:31:16;;;;;;;16.17;12.68;;;2.50;96.50;;;;;;5089473;28;20057;-48
2022/04/04 04:34:03;;;;;;;14.80;13.15;;;2.50;96.60;;;;;;5085594;28;20074;-50
2022/04/04 04:36:48;;;;;;;17.02;13.55;;;2.50;96.60;;;;;;5072598;28;20507;-48
2022/04/04 04:39:32;;;;;;;16.02;12.80;;;2.40;96.60;;;;;;5083551;28;20035;-51
2022/04/04 04:42:17;;;;;;;16.00;12.32;;;2.40;96.60;;;;;;5104153;28;20164;-50
2022/04/04 04:45:03;;;;;;;17.40;13.65;;;2.40;96.70;;;;;;5098114;28;20043;-49
2022/04/04 04:47:49;;;;;;;14.65;13.13;;;2.40;96.70;;;;;;5092682;28;20472;-47
2022/04/04 04:50:34;;;;;;;18.58;13.38;;;2.50;96.50;;;;;;5074857;28;20071;-48
2022/04/04 04:53:18;;;;;;;16.13;13.05;;;2.50;96.50;;;;;;5073081;28;20291;-49
2022/04/04 04:56:02;;;;;;;20.75;14.80;;;2.50;96.40;;;;;;5099560;28;20063;-53
2022/04/04 04:58:46;;;;;;;14.75;13.15;;;2.60;96.50;;;;;;5072936;28;20067;-53
2022/04/04 05:01:30;;;;;;;18.35;13.88;;;2.50;96.50;;;;;;5072651;28;20036;-50
2022/04/04 05:04:14;;;;;;;18.33;13.55;;;2.50;96.50;;;;;;5076669;28;20031;-48
2022/04/04 05:06:58;;;;;;;20.60;13.80;;;2.50;96.50;;;;;;5091787;28;20226;-49
2022/04/04 05:09:42;;;;;;;18.77;14.05;;;2.50;96.70;;;;;;5091652;28;20122;-47
2022/04/04 05:12:26;;;;;;;18.25;14.13;;;2.50;96.90;;;;;;5086712;28;20039;-47
2022/04/04 05:15:11;;;;;;;21.50;14.93;;;2.40;97.10;;;;;;5091756;28;20098;-51
2022/04/04 05:17:55;;;;;;;23.60;14.27;;;2.30;97.20;;;;;;5072227;28;20395;-48
2022/04/04 05:20:39;;;;;;;19.88;14.32;;;2.30;97.30;;;;;;5071351;28;20040;-50
2022/04/04 05:23:23;;;;;;;21.07;15.27;;;2.40;97.40;;;;;;5071591;28;20035;-48
2022/04/04 05:26:07;;;;;;;21.83;14.68;;;2.40;97.20;;;;;;5076448;28;20047;-48
2022/04/04 05:28:52;;;;;;;17.98;14.35;;;2.50;97.20;;;;;;5071819;28;20091;-53
2022/04/04 05:31:36;;;;;;;15.95;14.25;;;2.50;97.00;;;;;;5073421;28;20435;-51
2022/04/04 05:34:22;;;;;;;21.02;15.20;;;2.50;97.20;;;;;;5071519;28;20086;-50
2022/04/04 05:37:07;;;;;;;17.92;14.35;;;2.60;97.10;;;;;;5089521;28;20062;-51
2022/04/04 05:39:51;;;;;;;18.08;15.25;;;2.70;97.10;;;;;;5091732;28;20031;-52
2022/04/04 05:42:35;;;;;;;18.58;14.93;;;2.70;97.00;;;;;;5099356;28;20088;-51
2022/04/04 05:45:20;;;;;;;18.10;14.45;;;2.80;97.00;;;;;;5098635;28;20035;-52
2022/04/04 05:48:05;;;;;;;23.30;14.35;;;2.80;97.20;;;;;;5090596;28;20089;-48
2022/04/04 05:50:49;;;;;;;22.88;15.35;;;2.90;96.80;;;;;;5079784;28;20031;-50
2022/04/04 05:53:33;;;;;;;26.08;14.32;;;2.90;97.00;;;;;;5070715;28;20083;-47
2022/04/04 05:56:17;;;;;;;18.57;14.00;;;3.00;96.80;;;;;;5086182;28;20063;-54
2022/04/04 05:59:01;;;;;;;17.90;14.80;;;2.90;96.90;;;;;;5091941;28;20292;-48
2022/04/04 06:01:45;;;;;;;17.17;14.15;;;2.90;97.00;;;;;;5090584;28;20065;-49
2022/04/04 06:04:29;;;;;;;18.05;15.27;;;3.00;96.70;;;;;;5088288;28;20043;-47
2022/04/04 06:07:13;;;;;;;21.02;14.20;;;3.10;96.60;;;;;;5093174;28;20473;-51
2022/04/04 06:09:57;;;;;;;18.70;14.33;;;3.10;96.40;;;;;;5075606;28;20039;-47
2022/04/04 06:12:43;;;;;;;21.20;14.20;;;3.10;96.30;;;;;;5073809;28;20090;-49
2022/04/04 06:15:28;;;;;;;20.35;13.73;;;3.30;96.00;;;;;;5075322;28;20451;-49
2022/04/04 06:18:15;;;;;;;17.45;13.30;;;3.40;95.90;;;;;;5074623;28;20055;-51
2022/04/04 06:20:59;;;;;;;20.50;14.07;;;3.40;95.80;;;;;;5090521;28;20059;-48
2022/04/04 06:23:44;;;;;;;16.10;13.45;;;3.50;95.70;;;;;;5091426;28;20031;-51
2022/04/04 06:26:30;;;;;;;16.08;13.63;;;3.50;95.80;;;;;;5081557;28;20153;-55
2022/04/04 06:29:15;;;;;;;20.17;14.60;;;3.60;95.70;;;;;;5094649;28;20519;-55
2022/04/04 06:31:59;;;;;;;18.00;13.57;;;3.60;95.50;;;;;;5075862;28;20086;-53
2022/04/04 06:34:43;;;;;;;19.75;14.07;;;3.60;95.60;;;;;;5075350;28;20047;-48
2022/04/04 06:37:27;;;;;;;18.98;13.98;;;3.60;95.40;;;;;;5076198;28;20035;-51
2022/04/04 06:40:12;;;;;;;19.02;14.20;;;3.60;95.50;;;;;;5076658;28;20063;-50
2022/04/04 06:42:57;;;;;;;16.48;13.93;;;3.80;95.30;;;;;;5112183;28;20088;-48
2022/04/04 06:45:41;;;;;;;16.90;14.43;;;3.90;95.40;;;;;;5110928;28;20101;-50
2022/04/04 06:48:25;;;;;;;18.60;14.75;;;4.10;95.20;;;;;;5080383;28;20138;-52
2022/04/04 06:51:09;;;;;;;21.30;15.95;;;4.20;95.10;;;;;;5083204;28;20039;-53
2022/04/04 06:53:53;;;;;;;23.95;16.30;;;4.20;95.00;;;;;;5079275;28;20086;-54
2022/04/04 06:56:38;;;;;;;19.35;16.20;;;4.30;94.90;;;;;;5098313;28;20081;-50
2022/04/04 06:59:22;;;;;;;21.58;15.82;;;4.50;94.60;;;;;;5093883;28;20031;-50
2022/04/04 07:02:06;;;;;;;22.67;16.83;;;4.50;94.30;;;;;;5077657;28;20038;-47
2022/04/04 07:04:50;;;;;;;22.27;16.58;;;4.50;94.30;;;;;;5079890;28;20384;-50
2022/04/04 07:07:35;;;;;;;22.88;17.33;;;4.50;94.30;;;;;;5074052;28;20141;-54
2022/04/04 07:10:20;;;;;;;19.52;16.27;;;4.50;94.40;;;;;;5074478;28;20290;-49
2022/04/04 07:13:05;;;;;;;19.40;16.45;;;4.60;94.30;;;;;;5072448;28;20055;-50
2022/04/04 07:15:49;;;;;;;;;;;4.60;94.20;;;;;;5086598;28;20061;-54
2022/04/04 07:18:34;;;;;;;19.75;15.88;;;4.60;93.90;;;;;;5094528;28;19914;-51
2022/04/04 07:21:18;;;;;;;22.85;17.42;;;4.70;94.00;;;;;;5077079;28;20042;-50
2022/04/04 07:24:02;;;;;;;23.35;17.98;;;4.80;94.00;;;;;;5073670;28;20158;-49
2022/04/04 07:26:50;;;;;;;29.95;18.13;;;4.80;93.60;;;;;;5073534;28;20070;-51
2022/04/04 07:29:34;;;;;;;20.85;17.33;;;4.80;93.70;;;;;;5073924;28;20194;-47
2022/04/04 07:32:18;;;;;;;21.10;16.63;;;4.70;93.60;;;;;;5094060;28;20395;-47
2022/04/04 07:35:04;;;;;;;22.45;16.27;;;4.80;93.60;;;;;;5078188;28;20123;-47
2022/04/04 07:37:50;;;;;;;17.95;15.05;;;4.90;93.70;;;;;;5093693;28;20487;-51
2022/04/04 07:40:34;;;;;;;20.75;17.08;;;4.90;93.30;;;;;;5087722;28;20027;-49
2022/04/04 07:43:18;;;;;;;18.58;16.48;;;4.80;93.50;;;;;;5087747;28;20437;-47
2022/04/04 07:46:02;;;;;;;21.88;16.60;;;5.00;93.50;;;;;;5081602;28;20036;-48
2022/04/04 07:48:47;;;;;;;21.35;17.02;;;5.00;93.20;;;;;;5084419;28;20483;-47
2022/04/04 07:51:31;;;;;;;23.55;15.88;;;5.00;93.30;;;;;;5082849;28;20062;-50
2022/04/04 07:54:15;;;;;;;19.45;14.77;;;5.10;93.20;;;;;;5084417;28;20027;-50
2022/04/04 07:56:59;;;;;;;19.23;15.27;;;5.20;93.00;;;;;;5080657;28;20066;-53
2022/04/04 07:59:44;;;;;;;18.52;13.95;;;5.20;93.10;;;;;;5084514;28;20032;-51
2022/04/04 08:02:28;;;;;;;17.05;13.68;;;5.10;92.70;;;;;;5080846;28;20139;-53
2022/04/04 08:05:13;;;;;;;16.17;13.82;;;5.20;92.60;;;;;;5083763;28;20177;-49
2022/04/04 08:07:57;;;;;;;15.55;13.65;;;5.20;92.80;;;;;;5081452;28;20170;-51
2022/04/04 08:10:42;;;;;;;20.50;12.98;;;5.20;92.80;;;;;;5083030;28;20035;-54
2022/04/04 08:13:26;;;;;;;17.30;12.75;;;5.30;92.70;;;;;;5087527;28;20503;-49
2022/04/04 08:16:10;;;;;;;16.92;12.85;;;5.30;92.20;;;;;;5088890;28;20067;-50
2022/04/04 08:18:54;;;;;;;16.20;13.35;;;5.30;92.40;;;;;;5085154;28;20046;-51
2022/04/04 08:21:41;;;;;;;14.88;11.65;;;5.40;92.50;;;;;;5083876;28;20070;-52
2022/04/04 08:24:25;;;;;;;14.50;12.05;;;5.60;91.70;;;;;;5082929;28;20157;-47
2022/04/04 08:27:10;;;;;;;15.18;11.48;;;5.60;91.70;;;;;;5081318;28;20410;-46
2022/04/04 08:29:55;;;;;;;15.32;11.82;;;5.60;91.40;;;;;;5082486;28;20400;-51
2022/04/04 08:32:40;;;;;;;15.30;12.98;;;5.80;91.20;;;;;;5082438;28;20050;-48
2022/04/04 08:35:24;;;;;;;25.50;11.50;;;5.90;91.30;;;;;;5080789;28;20127;-48
2022/04/04 08:38:08;;;;;;;12.48;10.07;;;5.90;90.30;;;;;;5083147;28;20087;-52
2022/04/04 08:40:53;;;;;;;13.63;10.77;;;5.90;89.60;;;;;;5074123;28;20439;-56
2022/04/04 08:43:39;;;;;;;14.73;10.43;;;6.00;88.70;;;;;;5082908;28;20404;-48
2022/04/04 08:46:24;;;;;;;13.38;9.95;;;5.80;88.10;;;;;;5086188;28;20062;-49
2022/04/04 08:49:08;;;;;;;12.82;10.27;;;5.80;87.70;;;;;;5086063;28;20081;-48
2022/04/04 08:51:53;;;;;;;15.05;10.05;;;5.80;88.60;;;;;;5083611;28;20063;-49
2022/04/04 08:54:37;;;;;;;11.88;9.55;;;6.00;87.50;;;;;;5080756;28;20089;-51
2022/04/04 08:57:21;;;;;;;11.13;9.63;;;6.10;86.10;;;;;;5092611;28;20078;-52
2022/04/04 09:00:06;;;;;;;12.02;8.95;;;6.00;85.90;;;;;;5083749;28;20031;-52
2022/04/04 09:03:02;;;;;;;;;;;6.10;85.30;;;;;;5088266;28;20101;-54
2022/04/04 09:05:55;;;;;;;9.57;8.50;;;6.40;84.90;;;;;;5089213;28;19930;-54
2022/04/04 09:08:44;;;;;;;11.43;8.35;;;6.60;82.30;;;;;;5090957;28;20575;-47
2022/04/04 09:11:29;;;;;;;16.13;9.23;;;6.60;81.70;;;;;;5071546;28;20051;-50
2022/04/04 09:14:13;;;;;;;14.60;8.85;;;6.60;83.50;;;;;;5098277;28;20034;-49
2022/04/04 09:16:58;;;;;;;9.95;8.27;;;6.80;81.80;;;;;;5079316;28;20063;-47
2022/04/04 09:19:42;;;;;;;9.60;7.93;;;6.70;82.00;;;;;;5081195;28;20593;-46
2022/04/04 09:22:27;;;;;;;10.10;8.82;;;6.70;83.00;;;;;;5081122;28;20031;-62
2022/04/04 09:25:11;;;;;;;13.23;9.07;;;6.80;81.80;;;;;;5079489;28;20082;-49
2022/04/04 09:28:13;;;;;;;12.13;9.07;;;6.70;81.80;;;;;;5084948;28;20031;-49
2022/04/04 09:31:09;;;;;;;11.00;9.50;;;6.70;82.60;;;;;;5089024;28;20089;-50
2022/04/04 09:33:57;;;;;;;11.95;8.60;;;6.80;82.50;;;;;;5074987;28;20111;-47
2022/04/04 09:36:46;;;;;;;10.63;8.13;;;7.00;82.80;;;;;;5087161;28;20113;-49
2022/04/04 09:39:33;;;;;;;12.02;8.20;;;6.70;80.80;;;;;;5091180;28;20028;-51
2022/04/04 09:42:19;;;;;;;11.15;7.80;;;6.90;80.10;;;;;;5092861;28;20497;-48
2022/04/04 09:45:12;;;;;;;9.85;7.47;;;6.90;77.60;;;;;;5093627;28;20043;-50
2022/04/04 09:47:59;;;;;;;10.10;6.47;;;6.80;78.40;;;;;;5071757;28;20161;-49
2022/04/04 09:50:50;;;;;;;11.45;5.85;;;6.80;76.40;;;;;;5089349;28;20039;-49
2022/04/04 09:53:34;;;;;;;11.85;5.90;;;6.70;76.90;;;;;;5087865;28;20085;-51
2022/04/04 09:56:25;;;;;;;8.27;5.18;;;6.80;75.70;;;;;;5087826;28;20079;-47
2022/04/04 09:59:15;;;;;;;8.55;5.80;;;6.90;75.10;;;;;;5082918;28;20207;-48
2022/04/04 10:01:59;;;;;;;7.68;5.60;;;7.10;74.50;;;;;;5087344;28;20034;-45
2022/04/04 10:04:45;;;;;;;9.18;5.40;;;7.00;73.30;;;;;;5079280;28;20050;-49
2022/04/04 10:07:30;;;;;;;8.45;4.75;;;7.00;72.60;;;;;;5080303;28;20044;-49
2022/04/04 10:10:15;;;;;;;11.00;5.43;;;7.10;71.70;;;;;;5081640;28;20035;-47
2022/04/04 10:12:59;;;;;;;39.20;6.72;;;6.90;71.30;;;;;;5079318;28;20078;-50
2022/04/04 10:15:44;;;;;;;6.47;5.05;;;6.90;71.60;;;;;;5079794;28;20549;-50
2022/04/04 10:18:29;;;;;;;12.57;5.80;;;7.10;72.40;;;;;;5085847;28;20043;-52
2022/04/04 10:21:13;;;;;;;17.13;5.88;;;7.10;73.10;;;;;;5083973;28;20059;-50
2022/04/04 10:24:00;;;;;;;8.15;5.43;;;7.10;70.80;;;;;;5089129;28;20147;-50
2022/04/04 10:26:48;;;;;;;11.50;5.18;;;7.20;73.00;;;;;;5090965;28;20031;-52
2022/04/04 10:29:40;;;;;;;10.18;6.10;;;7.20;70.90;;;;;;5089319;28;20061;-51
2022/04/04 10:32:27;;;;;;;9.05;5.47;;;7.40;72.50;;;;;;5086023;28;20032;-52
2022/04/04 10:35:12;;;;;;;11.70;4.75;;;7.50;71.30;;;;;;5080354;28;20518;-50
2022/04/04 10:38:01;;;;;;;9.82;5.93;;;7.40;70.30;;;;;;5081960;28;20047;-48
2022/04/04 10:40:46;;;;;;;6.07;5.40;;;7.40;70.30;;;;;;5087654;28;20127;-51
2022/04/04 10:43:33;;;;;;;6.80;5.30;;;7.30;70.30;;;;;;5087087;28;20050;-50
2022/04/04 10:46:19;;;;;;;8.00;6.10;;;7.60;70.80;;;;;;5088417;28;20069;-46
2022/04/04 10:49:04;;;;;;;7.90;5.20;;;7.50;69.40;;;;;;5094885;28;20548;-51
2022/04/04 10:51:50;;;;;;;15.52;6.45;;;7.60;69.40;;;;;;5093867;28;20051;-53
2022/04/04 10:54:37;;;;;;;6.93;5.80;;;7.60;68.50;;;;;;5076228;28;20090;-49
2022/04/04 10:57:22;;;;;;;10.55;5.80;;;7.40;69.10;;;;;;5109252;28;20066;-47
2022/04/04 11:00:07;;;;;;;;;;;7.60;69.50;;;;;;5085013;28;20070;-55
2022/04/04 11:02:52;;;;;;;17.10;6.60;;;7.50;68.70;;;;;;5090513;28;19910;-48
2022/04/04 11:09:15;;;;;;;16.17;6.35;;;7.30;69.00;;;;;;5074093;28;19938;-45
2022/04/04 11:12:00;;;;;;;9.70;6.13;;;7.20;69.00;;;;;;5074164;28;20047;-48
2022/04/04 11:14:53;;;;;;;10.20;6.07;;;7.20;69.40;;;;;;5092592;28;20564;-49
2022/04/04 11:18:06;;;;;;;8.52;5.85;;;7.20;69.90;;;;;;5089770;28;20105;-53
2022/04/04 11:20:59;;;;;;;8.55;6.97;;;7.30;70.10;;;;;;5087216;28;20366;-46
2022/04/04 11:23:44;;;;;;;12.38;6.32;;;7.30;70.70;;;;;;5088547;28;20107;-51
2022/04/04 11:26:28;;;;;;;13.60;6.15;;;7.20;70.00;;;;;;5088153;28;20036;-47
2022/04/04 11:29:19;;;;;;;13.88;7.10;;;7.10;69.60;;;;;;5073769;28;20068;-48
2022/04/04 11:32:04;;;;;;;12.07;6.80;;;7.00;70.40;;;;;;5073685;28;20084;-51
2022/04/04 11:34:50;;;;;;;9.02;6.70;;;7.00;71.30;;;;;;5081862;28;20034;-51
2022/04/04 11:37:45;;;;;;;9.68;6.93;;;7.10;71.40;;;;;;5092957;28;20408;-49
2022/04/04 11:40:37;;;;;;;10.73;7.18;;;7.00;71.40;;;;;;5075926;28;20091;-45
2022/04/04 11:43:24;;;;;;;9.75;7.68;;;7.10;71.60;;;;;;5073230;28;20557;-51
2022/04/04 11:46:14;;;;;;;7.43;6.72;;;7.10;71.20;;;;;;5073397;28;20063;-48
2022/04/04 11:48:59;;;;;;;9.02;6.90;;;7.30;71.30;;;;;;5090946;28;20142;-48
2022/04/04 11:51:45;;;;;;;11.60;7.75;;;7.30;72.00;;;;;;5093346;28;20039;-53
2022/04/04 11:54:40;;;;;;;12.07;8.10;;;7.20;71.20;;;;;;5082238;28;20437;-48
2022/04/04 11:57:24;;;;;;;16.38;8.40;;;6.90;73.00;;;;;;5097968;28;20031;-46
2022/04/04 12:00:12;;;;;;;11.25;6.40;;;6.80;75.00;;;;;;5078194;28;20061;-48
2022/04/04 12:02:56;;;;;;;10.82;7.00;;;6.50;76.30;;;;;;5078992;28;20038;-52
2022/04/04 12:05:42;;;;;;;;;;;6.30;77.80;;;;;;5092701;28;20085;-50
2022/04/04 12:08:27;;;;;;;10.33;7.60;;;6.30;79.00;;;;;;5082325;28;19954;-49
2022/04/04 12:11:11;;;;;;;11.93;6.65;;;6.30;79.50;;;;;;5074918;28;20043;-45
2022/04/04 12:14:00;;;;;;;11.32;6.35;;;6.30;81.20;;;;;;5086569;28;20474;-53
2022/04/04 12:16:53;;;;;;;7.05;6.35;;;6.20;80.80;;;;;;5077046;28;20454;-52
2022/04/04 12:19:41;;;;;;;8.35;6.70;;;6.30;80.10;;;;;;5092894;28;20063;-56
2022/04/04 12:25:36;;;;;;;9.15;7.20;;;6.30;79.40;;;;;;5083673;28;20035;-47
2022/04/04 12:28:50;;;;;;;34.72;9.98;;;6.20;79.10;;;;;;5092887;28;20030;-52
2022/04/04 12:31:34;;;;;;;10.60;7.30;;;6.30;78.10;;;;;;5081084;28;20054;-49
2022/04/04 12:34:22;;;;;;;14.93;8.45;;;6.40;77.00;;;;;;5092652;28;20035;-49
2022/04/04 12:37:08;;;;;;;13.45;7.70;;;6.50;77.70;;;;;;5078595;28;20139;-54
2022/04/04 12:40:15;;;;;;;17.27;7.40;;;6.60;76.00;;;;;;5071957;28;20062;-50
2022/04/04 12:43:10;;;;;;;12.13;7.90;;;6.70;75.90;;;;;;5092069;28;20074;-52
2022/04/04 12:45:54;;;;;;;;;;;6.70;76.10;;;;;;5086443;28;20028;-48
2022/04/04 12:48:40;;;;;;;11.75;7.63;;;6.60;76.10;;;;;;5076832;28;19919;-51
2022/04/04 12:51:30;;;;;;;11.52;8.60;;;6.60;76.20;;;;;;5083996;28;20472;-53
2022/04/04 12:54:27;;;;;;;13.23;8.75;;;6.60;76.50;;;;;;5084704;28;20050;-53
2022/04/04 12:57:11;;;;;;;15.70;9.85;;;6.60;77.30;;;;;;5071805;28;20460;-55
2022/04/04 12:59:57;;;;;;;14.05;9.32;;;6.40;77.90;;;;;;5079247;28;20119;-52
2022/04/04 13:02:42;;;;;;;13.90;9.30;;;6.40;78.30;;;;;;5092844;28;20035;-52
2022/04/04 13:05:26;;;;;;;14.60;9.27;;;6.40;78.90;;;;;;5081087;28;20085;-54
2022/04/04 13:08:17;;;;;;;12.93;8.68;;;6.40;79.00;;;;;;5071289;28;20075;-52
2022/04/04 13:11:09;;;;;;;11.05;8.18;;;6.50;77.50;;;;;;5086838;28;20082;-50
2022/04/04 13:13:56;;;;;;;12.23;9.07;;;6.60;76.30;;;;;;5091688;28;20039;-51
2022/04/04 13:16:44;;;;;;;17.42;8.90;;;6.70;76.10;;;;;;5071819;28;20036;-55
2022/04/04 13:19:28;;;;;;;13.32;9.15;;;6.80;75.90;;;;;;5071323;28;20023;-49
2022/04/04 13:22:13;;;;;;;11.85;8.60;;;6.90;76.00;;;;;;5091415;28;20109;-49
2022/04/04 13:24:56;;;;;;;14.85;8.93;;;6.80;77.00;;;;;;5087205;28;20070;-53
2022/04/04 13:27:42;;;;;;;11.57;8.50;;;6.70;77.00;;;;;;5071285;28;20050;-51
2022/04/04 13:30:26;;;;;;;;;;;6.70;77.30;;;;;;5079271;28;20105;-51
2022/04/04 13:33:10;;;;;;;10.55;8.98;;;6.70;77.30;;;;;;5091257;28;19965;-53
2022/04/04 13:35:54;;;;;;;17.92;9.82;;;6.70;77.20;;;;;;5080068;28;20392;-49
2022/04/04 13:38:38;;;;;;;14.63;8.63;;;6.70;76.70;;;;;;5081132;28;20043;-50
2022/04/04 13:41:24;;;;;;;10.07;8.77;;;6.60;76.50;;;;;;5095346;28;20035;-52
2022/04/04 13:44:09;;;;;;;9.05;8.00;;;6.70;76.80;;;;;;5096163;28;20038;-52
2022/04/04 13:46:53;;;;;;;;;;;6.70;76.80;;;;;;5092202;28;20031;-51
2022/04/04 13:49:37;;;;;;;10.55;8.68;;;6.80;76.50;;;;;;5072762;28;19986;-51
2022/04/04 13:52:22;;;;;;;9.88;7.88;;;6.80;76.40;;;;;;5070718;28;20071;-49
2022/04/04 13:55:08;;;;;;;12.23;8.95;;;6.70;76.10;;;;;;5081622;28;20043;-54
2022/04/04 13:57:52;;;;;;;11.57;8.70;;;6.80;76.00;;;;;;5107544;28;20058;-54
2022/04/04 14:00:38;;;;;;;13.13;9.30;;;6.80;76.60;;;;;;5091068;28;20070;-53
2022/04/04 14:03:23;;;;;;;10.60;8.98;;;6.80;75.80;;;;;;5085016;28;20058;-54
2022/04/04 14:06:07;;;;;;;;;;;6.90;76.00;;;;;;5071486;28;20446;-51
2022/04/04 14:08:51;;;;;;;14.30;9.40;;;6.90;76.20;;;;;;5080020;28;19938;-51
2022/04/04 14:11:35;;;;;;;10.73;9.18;;;6.80;76.10;;;;;;5090790;28;20506;-52
2022/04/04 14:14:19;;;;;;;12.63;9.33;;;6.80;76.40;;;;;;5077792;28;20056;-53
2022/04/04 14:17:06;;;;;;;10.52;9.43;;;6.90;76.50;;;;;;5070656;28;20457;-54
2022/04/04 14:19:51;;;;;;;11.95;9.55;;;6.90;76.70;;;;;;5071705;28;20101;-52
2022/04/04 14:22:36;;;;;;;12.13;9.88;;;6.90;76.70;;;;;;5077279;28;20074;-51
2022/04/04 14:25:21;;;;;;;13.02;10.23;;;7.00;77.30;;;;;;5095428;28;20061;-53
2022/04/04 14:28:06;;;;;;;13.43;10.18;;;7.00;77.80;;;;;;5088384;28;20051;-52
2022/04/04 14:30:55;;;;;;;10.43;9.35;;;7.00;77.90;;;;;;5075569;28;20044;-54
2022/04/04 14:33:39;;;;;;;11.65;10.45;;;6.90;77.90;;;;;;5085343;28;20039;-50
2022/04/04 14:36:23;;;;;;;12.47;10.07;;;7.00;78.50;;;;;;5094734;28;20086;-50